createdAt,value
2022-08-30T00:00:09.858Z,77.42
2022-08-30T00:02:43.642Z,77.77
2022-08-30T00:05:33.233Z,77.89
2022-08-30T00:08:05.734Z,78.33
2022-08-30T00:10:49.089Z,78.42
2022-08-30T00:13:21.618Z,78.61
2022-08-30T00:16:12.268Z,78.69
2022-08-30T00:18:46.901Z,78.66
2022-08-30T00:21:16.783Z,78.58
2022-08-30T00:23:44.378Z,79.15
2022-08-30T00:26:14.670Z,78.67
2022-08-30T00:28:44.510Z,78.83
2022-08-30T00:31:17.010Z,78.75
2022-08-30T00:33:46.645Z,78.63
2022-08-30T00:36:21.563Z,79.93
2022-08-30T00:39:01.132Z,79.34
2022-08-30T00:41:35.632Z,78.92
2022-08-30T00:44:33.484Z,79.92
2022-08-30T00:47:24.123Z,79.41
2022-08-30T00:50:01.315Z,79.30
2022-08-30T00:53:03.006Z,79.65
2022-08-30T00:55:39.102Z,79.47
2022-08-30T00:58:34.167Z,79.26
2022-08-30T01:01:26.287Z,79.65
2022-08-30T01:04:23.689Z,79.66
2022-08-30T01:07:01.667Z,79.81
2022-08-30T01:10:17.779Z,80.01
2022-08-30T01:12:57.209Z,80.08
2022-08-30T01:15:38.446Z,79.92
2022-08-30T01:18:11.520Z,80.00
2022-08-30T01:21:27.404Z,80.49
2022-08-30T01:23:58.471Z,80.41
2022-08-30T01:26:43.061Z,80.90
2022-08-30T01:29:13.818Z,80.59
2022-08-30T01:31:40.506Z,80.37
2022-08-30T01:34:29.382Z,80.63
2022-08-30T01:37:14.698Z,80.60
2022-08-30T01:39:46.342Z,80.35
2022-08-30T01:42:20.287Z,80.09
2022-08-30T01:44:57.571Z,80.25
2022-08-30T01:47:38.501Z,80.49
2022-08-30T01:50:22.320Z,80.92
2022-08-30T01:52:51.028Z,81.01
2022-08-30T01:55:23.931Z,80.92
2022-08-30T01:57:53.267Z,81.30
2022-08-30T02:00:42.242Z,81.27
2022-08-30T02:03:13.350Z,81.29
2022-08-30T02:06:10.977Z,81.73
2022-08-30T02:09:04.322Z,81.97
2022-08-30T02:11:58.712Z,82.06
2022-08-30T02:14:29.229Z,82.45
2022-08-30T02:17:01.631Z,81.52
2022-08-30T02:19:43.396Z,81.37
2022-08-30T02:22:30.537Z,81.16
2022-08-30T02:25:22.206Z,81.16
2022-08-30T02:27:55.458Z,81.38
2022-08-30T02:30:41.967Z,81.57
2022-08-30T02:33:20.931Z,81.67
2022-08-30T02:35:55.843Z,81.54
2022-08-30T02:38:23.856Z,81.89
2022-08-30T02:40:58.778Z,81.73
2022-08-30T02:43:32.334Z,82.10
2022-08-30T02:46:10.614Z,81.71
2022-08-30T02:48:58.626Z,81.99
2022-08-30T02:52:04.715Z,82.23
2022-08-30T02:54:45.421Z,81.86
2022-08-30T02:57:50.482Z,82.13
2022-08-30T03:00:56.395Z,82.08
2022-08-30T03:04:26.901Z,82.05
2022-08-30T03:07:48.687Z,82.47
2022-08-30T03:10:49.574Z,81.98
2022-08-30T03:16:21.776Z,82.03
2022-08-30T03:19:08.367Z,81.79
2022-08-30T03:22:16.006Z,82.26
2022-08-30T03:25:06.022Z,82.11
2022-08-30T03:27:56.150Z,82.35
2022-08-30T03:31:02.921Z,82.36
2022-08-30T03:33:49.470Z,82.34
2022-08-30T03:36:30.000Z,82.24
2022-08-30T03:39:24.137Z,82.81
2022-08-30T03:42:01.989Z,82.25
2022-08-30T03:47:27.771Z,82.67
2022-08-30T03:49:54.701Z,82.24
2022-08-30T04:04:31.372Z,82.41
2022-08-30T04:07:03.757Z,82.89
2022-08-30T04:09:32.944Z,82.50
2022-08-30T04:12:05.315Z,82.89
2022-08-30T04:14:52.952Z,82.21
2022-08-30T04:17:52.265Z,82.30
2022-08-30T04:20:33.044Z,81.92
2022-08-30T04:23:13.249Z,81.88
2022-08-30T04:25:50.156Z,82.31
2022-08-30T04:28:41.261Z,82.79
2022-08-30T04:34:22.055Z,82.16
2022-08-30T04:37:14.482Z,81.96
2022-08-30T04:43:39.231Z,82.93
2022-08-30T04:53:30.878Z,83.11
2022-08-30T04:56:38.078Z,83.38
2022-08-30T04:59:42.622Z,82.74
2022-08-30T05:09:14.456Z,82.83
2022-08-30T05:11:59.633Z,83.09
2022-08-30T05:15:00.821Z,83.12
2022-08-30T05:17:42.634Z,82.55
2022-08-30T05:20:19.546Z,82.51
2022-08-30T05:22:57.347Z,82.19
2022-08-30T05:29:05.145Z,82.39
2022-08-30T05:32:28.682Z,82.36
2022-08-30T05:35:08.701Z,82.43
2022-08-30T05:38:11.236Z,82.47
2022-08-30T05:40:59.626Z,82.40
2022-08-30T05:43:26.854Z,82.32
2022-08-30T05:46:08.981Z,82.28
2022-08-30T05:48:35.896Z,82.08
2022-08-30T05:51:13.576Z,81.94
2022-08-30T05:53:41.394Z,81.95
2022-08-30T05:56:11.688Z,81.43
2022-08-30T05:58:38.472Z,81.55
2022-08-30T06:01:05.272Z,81.58
2022-08-30T06:03:35.005Z,81.32
2022-08-30T06:06:01.422Z,81.85
2022-08-30T06:08:27.880Z,81.44
2022-08-30T06:10:54.452Z,80.84
2022-08-30T06:13:20.886Z,80.90
2022-08-30T06:15:47.412Z,80.49
2022-08-30T06:18:14.211Z,80.27
2022-08-30T06:20:47.387Z,80.10
2022-08-30T06:23:20.143Z,80.10
2022-08-30T06:25:46.568Z,79.83
2022-08-30T06:28:13.273Z,79.41
2022-08-30T06:30:41.972Z,78.91
2022-08-30T06:33:09.673Z,78.58
2022-08-30T06:35:46.827Z,78.51
2022-08-30T06:38:18.862Z,78.11
2022-08-30T06:40:45.344Z,77.90
2022-08-30T06:43:11.803Z,77.26
2022-08-30T06:45:38.188Z,76.62
2022-08-30T06:48:04.577Z,76.24
2022-08-30T06:50:31.882Z,75.32
2022-08-30T06:53:04.279Z,74.24
2022-08-30T06:55:33.170Z,74.05
2022-08-30T06:58:00.646Z,74.36
2022-08-30T07:00:27.630Z,73.78
2022-08-30T07:02:54.059Z,73.45
2022-08-30T07:05:23.477Z,72.66
2022-08-30T07:07:53.223Z,72.51
2022-08-30T07:10:21.352Z,71.42
2022-08-30T07:12:47.888Z,71.35
2022-08-30T07:15:14.804Z,70.70
2022-08-30T07:18:13.453Z,69.88
2022-08-30T07:20:40.880Z,69.74
2022-08-30T07:23:08.361Z,69.30
2022-08-30T07:25:36.679Z,68.80
2022-08-30T07:28:03.934Z,68.41
2022-08-30T07:30:31.797Z,67.77
2022-08-30T07:32:58.496Z,67.27
2022-08-30T07:35:24.905Z,66.79
2022-08-30T07:37:51.343Z,66.34
2022-08-30T07:40:17.809Z,65.85
2022-08-30T07:42:44.246Z,65.29
2022-08-30T07:45:11.760Z,64.56
2022-08-30T07:47:38.551Z,64.54
2022-08-30T07:50:06.197Z,63.86
2022-08-30T07:52:32.839Z,63.24
2022-08-30T07:55:01.304Z,62.31
2022-08-30T07:57:27.832Z,62.20
2022-08-30T07:59:54.237Z,61.75
2022-08-30T08:02:20.704Z,61.15
2022-08-30T08:04:48.467Z,60.92
2022-08-30T08:07:15.136Z,60.01
2022-08-30T08:09:41.731Z,59.80
2022-08-30T08:12:08.864Z,59.31
2022-08-30T08:14:36.302Z,58.78
2022-08-30T08:17:03.817Z,58.78
2022-08-30T08:19:30.625Z,57.78
2022-08-30T08:22:19.427Z,57.57
2022-08-30T08:24:46.747Z,57.43
2022-08-30T08:27:13.197Z,56.88
2022-08-30T08:29:39.724Z,56.41
2022-08-30T08:32:06.199Z,55.43
2022-08-30T08:34:32.661Z,55.11
2022-08-30T08:36:59.064Z,53.27
2022-08-30T08:39:25.519Z,52.30
2022-08-30T08:42:04.283Z,51.04
2022-08-30T08:44:51.052Z,49.93
2022-08-30T08:47:38.022Z,50.20
2022-08-30T08:50:11.517Z,50.17
2022-08-30T08:53:36.156Z,48.92
2022-08-30T08:56:08.881Z,48.90
2022-08-30T08:58:47.093Z,47.22
2022-08-30T09:01:16.422Z,47.65
2022-08-30T09:03:43.820Z,47.21
2022-08-30T09:06:27.688Z,46.64
2022-08-30T09:08:55.226Z,46.84
2022-08-30T09:11:26.928Z,45.65
2022-08-30T09:13:57.121Z,45.73
2022-08-30T09:17:02.992Z,44.89
2022-08-30T09:19:53.101Z,44.94
2022-08-30T09:22:35.848Z,45.42
2022-08-30T09:25:07.192Z,44.50
2022-08-30T09:27:45.261Z,44.91
2022-08-30T09:30:28.805Z,44.26
2022-08-30T09:33:03.576Z,44.75
2022-08-30T09:36:04.840Z,43.89
2022-08-30T09:38:33.429Z,44.61
2022-08-30T09:41:23.669Z,44.77
2022-08-30T09:44:18.601Z,43.30
2022-08-30T09:46:54.426Z,43.73
2022-08-30T09:49:40.431Z,44.63
2022-08-30T09:52:34.402Z,44.06
2022-08-30T09:55:10.102Z,43.69
2022-08-30T09:57:56.025Z,44.00
2022-08-30T10:00:25.418Z,43.25
2022-08-30T10:03:30.037Z,42.72
2022-08-30T10:06:07.574Z,43.41
2022-08-30T10:09:01.901Z,43.21
2022-08-30T10:11:37.504Z,43.05
2022-08-30T10:14:18.872Z,42.74
2022-08-30T10:17:07.536Z,42.03
2022-08-30T10:19:51.251Z,41.63
2022-08-30T10:22:29.737Z,42.42
2022-08-30T10:25:07.073Z,42.14
2022-08-30T10:27:42.562Z,41.38
2022-08-30T10:30:13.764Z,42.79
2022-08-30T10:32:54.919Z,42.53
2022-08-30T10:35:27.916Z,41.98
2022-08-30T10:38:04.590Z,41.96
2022-08-30T10:40:55.087Z,41.34
2022-08-30T10:43:26.684Z,40.92
2022-08-30T10:45:57.167Z,41.37
2022-08-30T10:48:28.484Z,41.29
2022-08-30T10:50:57.209Z,42.25
2022-08-30T10:53:31.253Z,42.15
2022-08-30T10:56:11.000Z,42.27
2022-08-30T10:58:40.737Z,41.93
2022-08-30T11:01:28.648Z,41.72
2022-08-30T11:04:17.396Z,40.81
2022-08-30T11:06:59.245Z,41.05
2022-08-30T11:09:37.848Z,41.71
2022-08-30T11:12:36.313Z,40.59
2022-08-30T11:15:34.944Z,42.16
2022-08-30T11:18:05.569Z,41.06
2022-08-30T11:20:42.354Z,41.02
2022-08-30T11:24:11.470Z,40.33
2022-08-30T11:26:48.297Z,40.41
2022-08-30T11:29:29.945Z,40.54
2022-08-30T11:32:01.814Z,40.48
2022-08-30T11:34:46.362Z,40.13
2022-08-30T11:37:41.730Z,39.72
2022-08-30T11:40:17.271Z,39.37
2022-08-30T11:42:49.382Z,39.43
2022-08-30T11:45:22.027Z,38.88
2022-08-30T11:47:57.109Z,39.59
2022-08-30T11:50:31.217Z,40.35
2022-08-30T11:53:34.821Z,38.71
2022-08-30T11:56:13.460Z,39.07
2022-08-30T11:59:09.757Z,38.82
2022-08-30T12:01:50.019Z,38.86
2022-08-30T12:04:17.958Z,38.37
2022-08-30T12:06:51.173Z,38.94
2022-08-30T12:09:37.801Z,39.53
2022-08-30T12:12:07.081Z,38.52
2022-08-30T12:14:54.526Z,38.57
2022-08-30T12:18:17.476Z,38.46
2022-08-30T12:20:47.273Z,38.86
2022-08-30T12:23:17.818Z,38.45
2022-08-30T12:25:44.322Z,37.49
2022-08-30T12:28:14.834Z,37.76
2022-08-30T12:30:42.024Z,37.98
2022-08-30T12:33:14.445Z,37.30
2022-08-30T12:35:43.213Z,38.00
2022-08-30T12:38:19.274Z,37.28
2022-08-30T12:40:57.892Z,37.59
2022-08-30T12:43:50.327Z,37.09
2022-08-30T12:46:17.370Z,37.65
2022-08-30T12:48:44.713Z,37.74
2022-08-30T12:51:30.623Z,37.70
2022-08-30T12:54:04.255Z,38.19
2022-08-30T12:56:56.039Z,38.11
2022-08-30T12:59:54.104Z,37.86
2022-08-30T13:02:27.372Z,37.08
2022-08-30T13:04:54.333Z,36.35
2022-08-30T13:07:30.379Z,35.07
2022-08-30T13:10:03.044Z,34.66
2022-08-30T13:12:29.538Z,35.17
2022-08-30T13:15:19.120Z,35.55
2022-08-30T13:17:46.903Z,34.07
2022-08-30T13:20:16.289Z,32.29
2022-08-30T13:23:04.780Z,32.19
2022-08-30T13:25:32.967Z,31.90
2022-08-30T13:28:00.576Z,31.57
2022-08-30T13:30:27.505Z,30.90
2022-08-30T13:32:53.914Z,30.07
2022-08-30T13:35:20.305Z,29.89
2022-08-30T13:37:50.425Z,29.00
2022-08-30T13:40:18.999Z,29.38
2022-08-30T13:42:45.577Z,28.43
2022-08-30T13:48:00.647Z,28.11
2022-08-30T13:50:28.524Z,28.02
2022-08-30T13:52:57.063Z,28.11
2022-08-30T13:55:23.577Z,29.10
2022-08-30T13:57:57.516Z,28.96
2022-08-30T14:00:25.217Z,28.66
2022-08-30T14:02:57.675Z,28.20
2022-08-30T14:06:04.949Z,28.19
2022-08-30T14:11:06.991Z,28.51
2022-08-30T14:13:33.778Z,27.69
2022-08-30T14:18:49.213Z,27.34
2022-08-30T14:21:16.062Z,27.82
2022-08-30T14:23:45.310Z,27.52
2022-08-30T14:26:22.975Z,27.34
2022-08-30T14:28:52.165Z,28.28
2022-08-30T14:31:19.980Z,28.08
2022-08-30T14:33:46.980Z,26.99
2022-08-30T14:36:15.565Z,26.95
2022-08-30T14:38:42.913Z,27.83
2022-08-30T14:41:12.092Z,27.69
2022-08-30T14:43:40.368Z,26.65
2022-08-30T14:46:10.377Z,25.56
2022-08-30T14:48:37.840Z,25.17
2022-08-30T14:51:12.589Z,25.90
2022-08-30T14:53:39.078Z,26.32
2022-08-30T14:56:15.692Z,25.86
2022-08-30T14:58:42.313Z,25.39
2022-08-30T15:01:10.354Z,24.33
2022-08-30T15:03:39.940Z,25.06
2022-08-30T15:06:07.144Z,24.65
2022-08-30T15:08:35.188Z,25.12
2022-08-30T15:11:06.437Z,25.02
2022-08-30T15:13:33.243Z,25.22
2022-08-30T15:15:59.804Z,24.95
2022-08-30T15:18:26.261Z,25.04
2022-08-30T15:20:53.554Z,25.60
2022-08-30T15:23:22.881Z,26.86
2022-08-30T15:25:51.348Z,27.87
2022-08-30T15:28:19.102Z,27.87
2022-08-30T15:30:45.777Z,28.13
2022-08-30T15:33:12.284Z,27.73
2022-08-30T15:35:38.749Z,27.48
2022-08-30T15:38:05.152Z,28.06
2022-08-30T15:40:34.753Z,28.89
2022-08-30T15:43:04.588Z,28.60
2022-08-30T15:45:31.456Z,29.75
2022-08-30T15:48:01.518Z,29.40
2022-08-30T15:50:28.828Z,30.12
2022-08-30T15:52:56.348Z,30.67
2022-08-30T15:55:23.229Z,31.36
2022-08-30T15:57:50.067Z,31.07
2022-08-30T16:00:16.829Z,30.77
2022-08-30T16:02:43.848Z,31.20
2022-08-30T16:05:10.559Z,31.56
2022-08-30T16:07:40.670Z,30.94
2022-08-30T16:10:08.545Z,31.38
2022-08-30T16:12:35.010Z,31.25
2022-08-30T16:15:01.451Z,31.15
2022-08-30T16:17:28.487Z,30.99
2022-08-30T16:19:58.845Z,31.32
2022-08-30T16:22:26.367Z,31.03
2022-08-30T16:24:53.136Z,30.72
2022-08-30T16:27:21.197Z,31.79
2022-08-30T16:29:48.005Z,31.31
2022-08-30T16:32:16.987Z,30.67
2022-08-30T16:34:43.410Z,30.63
2022-08-30T16:37:09.819Z,30.58
2022-08-30T16:39:36.479Z,31.49
2022-08-30T16:42:03.294Z,31.81
2022-08-30T16:44:30.722Z,32.16
2022-08-30T16:46:57.456Z,32.96
2022-08-30T16:49:24.883Z,33.63
2022-08-30T16:51:52.585Z,33.78
2022-08-30T16:54:19.753Z,34.29
2022-08-30T16:56:46.246Z,34.97
2022-08-30T16:59:13.625Z,34.93
2022-08-30T17:01:42.338Z,35.25
2022-08-30T17:04:09.985Z,35.59
2022-08-30T17:06:36.532Z,36.11
2022-08-30T17:09:05.356Z,35.95
2022-08-30T17:11:32.807Z,36.49
2022-08-30T17:13:59.225Z,36.78
2022-08-30T17:16:28.162Z,37.05
2022-08-30T17:18:59.706Z,37.50
2022-08-30T17:21:27.290Z,37.27
2022-08-30T17:23:53.752Z,37.66
2022-08-30T17:26:24.937Z,37.55
2022-08-30T17:28:52.908Z,37.93
2022-08-30T17:31:19.358Z,37.94
2022-08-30T17:33:46.592Z,38.44
2022-08-30T17:36:13.016Z,38.94
2022-08-30T17:38:44.876Z,38.79
2022-08-30T17:41:12.505Z,39.48
2022-08-30T17:43:39.135Z,39.57
2022-08-30T17:46:06.968Z,39.16
2022-08-30T17:48:33.741Z,39.72
2022-08-30T17:51:00.260Z,40.23
2022-08-30T17:53:26.757Z,40.34
2022-08-30T17:55:53.204Z,40.67
2022-08-30T17:58:19.721Z,41.30
2022-08-30T18:00:48.352Z,41.49
2022-08-30T18:03:17.344Z,41.86
2022-08-30T18:05:46.986Z,41.96
2022-08-30T18:08:13.788Z,42.41
2022-08-30T18:10:40.326Z,42.66
2022-08-30T18:13:06.747Z,42.75
2022-08-30T18:15:33.829Z,43.28
2022-08-30T18:18:00.229Z,43.63
2022-08-30T18:20:26.635Z,44.46
2022-08-30T18:22:53.270Z,44.85
2022-08-30T18:25:19.752Z,44.80
2022-08-30T18:27:58.089Z,44.94
2022-08-30T18:30:31.212Z,45.47
2022-08-30T18:33:00.561Z,45.92
2022-08-30T18:35:27.389Z,45.92
2022-08-30T18:37:54.091Z,46.00
2022-08-30T18:40:20.741Z,46.55
2022-08-30T18:42:47.497Z,46.91
2022-08-30T18:45:14.886Z,47.60
2022-08-30T18:47:41.648Z,47.77
2022-08-30T18:50:08.365Z,48.19
2022-08-30T18:52:35.239Z,48.29
2022-08-30T18:55:02.299Z,49.10
2022-08-30T18:57:28.710Z,49.33
2022-08-30T18:59:57.621Z,50.15
2022-08-30T19:02:27.552Z,50.77
2022-08-30T19:04:54.399Z,51.46
2022-08-30T19:07:21.440Z,51.73
2022-08-30T19:09:53.524Z,52.29
2022-08-30T19:12:20.210Z,53.53
2022-08-30T19:14:47.457Z,54.17
2022-08-30T19:17:14.081Z,54.39
2022-08-30T19:19:49.289Z,55.06
2022-08-30T19:22:20.876Z,56.05
2022-08-30T19:24:49.699Z,56.60
2022-08-30T19:27:18.977Z,57.46
2022-08-30T19:29:48.201Z,57.35
2022-08-30T19:32:20.112Z,57.24
2022-08-30T19:34:46.538Z,57.48
2022-08-30T19:37:14.751Z,57.68
2022-08-30T19:39:45.004Z,57.66
2022-08-30T19:42:13.521Z,57.67
2022-08-30T19:44:39.919Z,57.04
2022-08-30T19:47:06.526Z,57.51
2022-08-30T19:49:33.916Z,57.25
2022-08-30T19:52:00.416Z,57.46
2022-08-30T19:54:26.893Z,57.91
2022-08-30T19:56:53.305Z,57.55
2022-08-30T19:59:19.799Z,58.80
2022-08-30T20:01:46.733Z,58.54
2022-08-30T20:04:14.230Z,59.16
2022-08-30T20:06:41.904Z,59.35
2022-08-30T20:16:01.119Z,63.43
2022-08-30T20:18:33.942Z,61.79
2022-08-30T20:21:13.231Z,61.83
2022-08-30T20:23:43.417Z,62.51
2022-08-30T20:26:10.497Z,62.32
2022-08-30T20:28:58.713Z,62.99
2022-08-30T20:31:31.446Z,63.71
2022-08-30T20:34:02.650Z,63.61
2022-08-30T20:36:33.613Z,64.06
2022-08-30T20:39:18.644Z,63.97
2022-08-30T20:41:54.892Z,64.16
2022-08-30T20:44:37.105Z,63.89
2022-08-30T20:47:15.300Z,63.94
2022-08-30T20:49:45.165Z,64.22
2022-08-30T20:52:11.691Z,64.06
2022-08-30T20:54:43.320Z,64.71
2022-08-30T20:57:20.228Z,64.86
2022-08-30T20:59:49.206Z,65.08
2022-08-30T21:02:15.826Z,64.75
2022-08-30T21:04:42.642Z,65.04
2022-08-30T21:07:09.297Z,64.60
2022-08-30T21:09:38.127Z,64.78
2022-08-30T21:12:05.138Z,64.31
2022-08-30T21:14:32.294Z,64.04
2022-08-30T21:16:58.761Z,63.85
2022-08-30T21:19:25.325Z,64.17
2022-08-30T21:21:51.999Z,63.96
2022-08-30T21:24:18.660Z,63.75
2022-08-30T21:26:45.209Z,63.85
2022-08-30T21:29:11.975Z,63.42
2022-08-30T21:31:38.497Z,63.61
2022-08-30T21:34:05.063Z,63.77
2022-08-30T21:36:46.583Z,63.35
2022-08-30T21:39:20.540Z,64.59
2022-08-30T21:41:47.965Z,64.01
2022-08-30T21:44:18.138Z,63.88
2022-08-30T21:46:45.607Z,63.44
2022-08-30T21:49:13.396Z,63.13
2022-08-30T21:51:44.476Z,63.03
2022-08-30T21:54:11.677Z,63.11
2022-08-30T21:56:40.324Z,62.68
2022-08-30T21:59:07.730Z,62.96
2022-08-30T22:01:34.828Z,63.03
2022-08-30T22:04:05.904Z,62.58
2022-08-30T22:06:34.151Z,63.21
2022-08-30T22:09:02.404Z,63.44
2022-08-30T22:11:30.292Z,63.47
2022-08-30T22:13:57.136Z,63.24
2022-08-30T22:16:25.428Z,62.95
2022-08-30T22:18:52.017Z,63.13
2022-08-30T22:21:21.617Z,63.26
2022-08-30T22:23:47.955Z,63.72
2022-08-30T22:26:16.347Z,62.98
2022-08-30T22:28:42.760Z,63.44
2022-08-30T22:31:11.048Z,62.99
2022-08-30T22:33:37.709Z,62.67
2022-08-30T22:36:08.245Z,63.16
2022-08-30T22:38:34.706Z,62.66
2022-08-30T22:41:01.152Z,62.92
2022-08-30T22:43:27.551Z,62.68
2022-08-30T22:45:54.373Z,62.91
2022-08-30T22:48:20.801Z,63.34
2022-08-30T22:50:47.606Z,63.24
2022-08-30T22:53:14.038Z,63.25
2022-08-30T22:55:41.088Z,63.20
2022-08-30T22:58:07.505Z,63.13
2022-08-30T23:00:33.941Z,62.91
2022-08-30T23:03:00.579Z,63.21
2022-08-30T23:05:26.988Z,63.11
2022-08-30T23:07:53.384Z,63.08
2022-08-30T23:10:19.846Z,62.76
2022-08-30T23:12:46.354Z,63.39
2022-08-30T23:15:15.378Z,62.60
2022-08-30T23:17:41.853Z,62.69
2022-08-30T23:20:08.665Z,62.85
2022-08-30T23:22:35.125Z,62.86
2022-08-30T23:25:20.194Z,63.26
2022-08-30T23:28:05.191Z,63.31
2022-08-30T23:30:50.423Z,63.59
2022-08-30T23:33:35.700Z,63.19
2022-08-30T23:36:33.006Z,63.39
2022-08-30T23:39:17.924Z,63.14
2022-08-30T23:42:03.005Z,63.41
2022-08-30T23:44:48.030Z,62.42
2022-08-30T23:47:33.212Z,63.05
2022-08-30T23:50:18.377Z,63.51
2022-08-30T23:53:03.384Z,63.71
2022-08-30T23:55:48.219Z,64.20
2022-08-30T23:58:32.867Z,63.86
